createdAt,value
2022-09-10T00:01:22.520Z,70.45
2022-09-10T00:03:50.165Z,71.65
2022-09-10T00:06:18.007Z,70.93
2022-09-10T00:08:45.859Z,70.04
2022-09-10T00:11:12.820Z,69.65
2022-09-10T00:13:40.605Z,70.39
2022-09-10T00:16:10.493Z,70.20
2022-09-10T00:18:38.655Z,69.57
2022-09-10T00:21:08.428Z,71.69
2022-09-10T00:23:35.251Z,70.79
2022-09-10T00:26:14.065Z,71.21
2022-09-10T00:28:41.510Z,70.88
2022-09-10T00:31:08.210Z,70.13
2022-09-10T00:33:35.239Z,70.48
2022-09-10T00:36:02.522Z,70.11
2022-09-10T00:38:29.166Z,70.44
2022-09-10T00:41:02.879Z,70.93
2022-09-10T00:43:49.522Z,71.02
2022-09-10T00:46:25.129Z,71.64
2022-09-10T00:48:54.550Z,71.81
2022-09-10T00:51:21.195Z,72.09
2022-09-10T00:53:48.073Z,72.03
2022-09-10T00:56:14.661Z,71.63
2022-09-10T00:58:41.611Z,72.09
2022-09-10T01:01:08.434Z,72.39
2022-09-10T01:03:35.525Z,71.96
2022-09-10T01:06:02.870Z,73.08
2022-09-10T01:08:29.657Z,72.88
2022-09-10T01:11:08.517Z,73.20
2022-09-10T01:13:54.037Z,72.56
2022-09-10T01:16:42.190Z,72.66
2022-09-10T01:19:40.313Z,73.31
2022-09-10T01:22:31.217Z,73.43
2022-09-10T01:25:15.782Z,73.84
2022-09-10T01:27:45.362Z,73.27
2022-09-10T01:30:13.772Z,74.13
2022-09-10T01:32:59.623Z,74.60
2022-09-10T01:35:34.345Z,74.95
2022-09-10T01:38:04.514Z,74.32
2022-09-10T01:40:33.295Z,74.38
2022-09-10T01:43:10.360Z,73.18
2022-09-10T01:45:48.856Z,72.97
2022-09-10T01:48:41.301Z,72.98
2022-09-10T01:51:26.226Z,72.23
2022-09-10T01:54:14.994Z,72.33
2022-09-10T01:57:22.258Z,73.23
2022-09-10T02:00:09.763Z,73.22
2022-09-10T02:03:01.643Z,73.16
2022-09-10T02:05:33.951Z,73.42
2022-09-10T02:08:08.299Z,73.23
2022-09-10T02:10:47.060Z,73.50
2022-09-10T02:13:13.867Z,72.92
2022-09-10T02:16:02.708Z,73.18
2022-09-10T02:18:38.632Z,72.75
2022-09-10T02:21:06.146Z,72.83
2022-09-10T02:23:56.566Z,72.42
2022-09-10T02:26:24.484Z,71.83
2022-09-10T02:28:51.463Z,71.34
2022-09-10T02:31:18.523Z,71.62
2022-09-10T02:33:45.491Z,72.40
2022-09-10T02:36:12.550Z,72.53
2022-09-10T02:38:39.323Z,72.22
2022-09-10T02:41:06.371Z,71.68
2022-09-10T02:43:33.020Z,71.81
2022-09-10T02:46:00.344Z,71.80
2022-09-10T02:48:28.039Z,71.60
2022-09-10T02:50:57.337Z,71.45
2022-09-10T02:53:26.718Z,72.02
2022-09-10T02:55:56.371Z,71.60
2022-09-10T02:58:23.044Z,71.50
2022-09-10T03:00:50.028Z,72.12
2022-09-10T03:03:18.241Z,72.43
2022-09-10T03:05:44.946Z,71.74
2022-09-10T03:08:11.620Z,71.59
2022-09-10T03:10:42.692Z,72.15
2022-09-10T03:13:09.394Z,72.52
2022-09-10T03:15:36.172Z,71.91
2022-09-10T03:18:03.018Z,71.59
2022-09-10T03:20:29.616Z,71.82
2022-09-10T03:22:56.291Z,72.09
2022-09-10T03:25:23.190Z,72.21
2022-09-10T03:27:52.943Z,72.50
2022-09-10T03:30:20.001Z,73.18
2022-09-10T03:32:46.845Z,73.01
2022-09-10T03:35:14.039Z,73.21
2022-09-10T03:37:40.832Z,72.98
2022-09-10T03:40:08.307Z,72.33
2022-09-10T03:42:36.805Z,71.96
2022-09-10T03:45:03.605Z,72.16
2022-09-10T03:47:30.588Z,72.39
2022-09-10T03:49:59.806Z,72.54
2022-09-10T03:52:26.569Z,71.81
2022-09-10T03:54:53.212Z,72.59
2022-09-10T03:57:19.937Z,72.43
2022-09-10T03:59:46.664Z,72.37
2022-09-10T04:02:13.778Z,72.76
2022-09-10T04:04:40.997Z,72.85
2022-09-10T04:07:10.755Z,72.44
2022-09-10T04:09:37.533Z,72.41
2022-09-10T04:12:04.399Z,72.56
2022-09-10T04:14:33.710Z,72.76
2022-09-10T04:17:01.536Z,73.24
2022-09-10T04:19:28.791Z,72.89
2022-09-10T04:21:55.704Z,73.57
2022-09-10T04:24:23.438Z,73.36
2022-09-10T04:26:50.137Z,73.14
2022-09-10T04:29:18.280Z,72.35
2022-09-10T04:31:45.705Z,72.78
2022-09-10T04:34:14.426Z,72.14
2022-09-10T04:36:41.484Z,71.90
2022-09-10T04:39:08.791Z,71.87
2022-09-10T04:41:36.465Z,71.99
2022-09-10T04:44:04.710Z,71.89
2022-09-10T04:46:31.673Z,71.52
2022-09-10T04:48:59.250Z,71.04
2022-09-10T04:51:29.324Z,71.44
2022-09-10T04:53:56.229Z,71.53
2022-09-10T04:56:28.586Z,71.33
2022-09-10T04:58:55.276Z,71.55
2022-09-10T05:01:22.339Z,71.42
2022-09-10T05:03:51.952Z,71.92
2022-09-10T05:06:19.039Z,71.57
2022-09-10T05:08:47.053Z,71.70
2022-09-10T05:11:13.724Z,71.98
2022-09-10T05:13:40.807Z,72.20
2022-09-10T05:16:07.518Z,72.30
2022-09-10T05:18:34.906Z,71.97
2022-09-10T05:21:02.243Z,72.08
2022-09-10T05:23:29.050Z,72.62
2022-09-10T05:25:58.523Z,72.06
2022-09-10T05:28:26.249Z,72.21
2022-09-10T05:30:52.906Z,71.89
2022-09-10T05:33:22.470Z,72.09
2022-09-10T05:35:49.687Z,72.23
2022-09-10T05:38:17.628Z,73.18
2022-09-10T05:40:44.693Z,73.23
2022-09-10T05:43:11.435Z,73.65
2022-09-10T05:45:38.620Z,73.23
2022-09-10T05:48:06.166Z,73.02
2022-09-10T05:50:32.771Z,72.64
2022-09-10T05:52:59.596Z,72.72
2022-09-10T05:55:27.184Z,72.56
2022-09-10T05:57:54.422Z,73.00
2022-09-10T06:00:21.156Z,73.72
2022-09-10T06:02:57.990Z,74.68
2022-09-10T06:05:29.074Z,74.58
2022-09-10T06:07:56.239Z,74.56
2022-09-10T06:10:22.845Z,73.68
2022-09-10T06:12:51.367Z,74.32
2022-09-10T06:15:20.134Z,72.91
2022-09-10T06:17:48.195Z,72.33
2022-09-10T06:20:14.942Z,72.07
2022-09-10T06:22:43.692Z,72.04
2022-09-10T06:25:10.331Z,71.55
2022-09-10T06:27:37.654Z,72.07
2022-09-10T06:30:06.086Z,71.46
2022-09-10T06:32:33.816Z,71.18
2022-09-10T06:35:02.242Z,71.37
2022-09-10T06:37:29.045Z,70.59
2022-09-10T06:39:55.708Z,70.56
2022-09-10T06:42:23.195Z,70.26
2022-09-10T06:45:12.590Z,71.19
2022-09-10T06:51:01.718Z,71.24
2022-09-10T06:53:33.096Z,70.59
2022-09-10T06:56:02.141Z,69.73
2022-09-10T06:58:34.060Z,70.20
2022-09-10T07:01:14.124Z,69.21
2022-09-10T07:03:44.761Z,68.42
2022-09-10T07:06:14.583Z,67.87
2022-09-10T07:08:42.116Z,68.65
2022-09-10T07:11:13.369Z,68.39
2022-09-10T07:13:41.430Z,67.91
2022-09-10T07:16:08.375Z,69.46
2022-09-10T07:18:35.958Z,68.88
2022-09-10T07:21:14.560Z,68.84
2022-09-10T07:23:46.973Z,69.40
2022-09-10T07:26:16.463Z,69.89
2022-09-10T07:28:49.782Z,70.47
2022-09-10T07:31:30.344Z,70.70
2022-09-10T07:34:04.273Z,69.99
2022-09-10T07:36:31.607Z,69.74
2022-09-10T07:39:00.004Z,69.89
2022-09-10T07:41:27.064Z,69.61
2022-09-10T07:43:54.417Z,69.87
2022-09-10T07:46:25.594Z,69.60
2022-09-10T07:48:58.005Z,69.59
2022-09-10T07:51:25.866Z,69.61
2022-09-10T07:53:55.881Z,69.42
2022-09-10T07:56:23.327Z,69.07
2022-09-10T07:58:51.417Z,68.82
2022-09-10T08:01:19.853Z,68.21
2022-09-10T08:03:47.250Z,68.55
2022-09-10T08:06:17.167Z,68.55
2022-09-10T08:08:44.968Z,68.08
2022-09-10T08:11:18.758Z,66.75
2022-09-10T08:13:51.121Z,68.13
2022-09-10T08:16:23.873Z,68.36
2022-09-10T08:18:56.823Z,68.11
2022-09-10T08:21:24.619Z,67.80
2022-09-10T08:23:54.712Z,67.12
2022-09-10T08:26:22.776Z,67.91
2022-09-10T08:28:52.399Z,67.90
2022-09-10T08:31:19.464Z,67.59
2022-09-10T08:33:55.650Z,67.69
2022-09-10T08:36:23.933Z,66.83
2022-09-10T08:38:51.693Z,66.30
2022-09-10T08:41:19.352Z,66.76
2022-09-10T08:44:18.285Z,66.84
2022-09-10T08:46:54.545Z,66.04
2022-09-10T08:49:40.797Z,65.71
2022-09-10T08:52:24.525Z,65.65
2022-09-10T08:55:13.848Z,66.54
2022-09-10T08:57:52.038Z,66.71
2022-09-10T09:00:21.977Z,66.64
2022-09-10T09:02:52.196Z,66.52
2022-09-10T09:05:23.706Z,65.05
2022-09-10T09:07:54.410Z,64.83
2022-09-10T09:10:24.440Z,64.29
2022-09-10T09:13:28.456Z,63.95
2022-09-10T09:16:05.422Z,65.18
2022-09-10T09:18:32.442Z,64.02
2022-09-10T09:21:05.284Z,64.56
2022-09-10T09:24:12.113Z,62.18
2022-09-10T09:26:45.781Z,61.95
2022-09-10T09:29:28.741Z,61.76
2022-09-10T09:32:01.094Z,62.59
2022-09-10T09:34:35.684Z,60.90
2022-09-10T09:37:15.767Z,61.50
2022-09-10T09:40:05.316Z,61.63
2022-09-10T09:42:40.119Z,61.57
2022-09-10T09:45:14.514Z,61.86
2022-09-10T09:47:41.160Z,63.08
2022-09-10T09:50:11.787Z,63.32
2022-09-10T09:52:43.287Z,61.99
2022-09-10T09:55:41.436Z,61.07
2022-09-10T09:58:23.251Z,60.70
2022-09-10T10:01:05.264Z,60.67
2022-09-10T10:03:36.273Z,60.50
2022-09-10T10:06:11.509Z,60.79
2022-09-10T10:08:42.745Z,60.54
2022-09-10T10:11:13.468Z,60.98
2022-09-10T10:13:43.914Z,61.28
2022-09-10T10:16:23.987Z,60.90
2022-09-10T10:18:51.068Z,61.56
2022-09-10T10:21:31.376Z,60.35
2022-09-10T10:23:58.869Z,61.24
2022-09-10T10:26:34.039Z,60.99
2022-09-10T10:29:20.587Z,60.03
2022-09-10T10:31:49.263Z,60.10
2022-09-10T10:34:41.072Z,60.15
2022-09-10T10:37:25.216Z,59.00
2022-09-10T10:40:07.128Z,60.28
2022-09-10T10:42:46.075Z,58.43
2022-09-10T10:45:33.740Z,58.52
2022-09-10T10:48:00.405Z,58.36
2022-09-10T10:50:52.280Z,57.96
2022-09-10T10:53:41.518Z,57.94
2022-09-10T10:56:17.964Z,57.88
2022-09-10T10:58:58.517Z,58.26
2022-09-10T11:01:28.742Z,58.18
2022-09-10T11:04:01.785Z,58.18
2022-09-10T11:06:39.566Z,57.68
2022-09-10T11:09:15.064Z,56.27
2022-09-10T11:11:57.132Z,56.69
2022-09-10T11:14:45.607Z,55.87
2022-09-10T11:17:18.290Z,55.30
2022-09-10T11:19:53.353Z,56.42
2022-09-10T11:22:42.977Z,57.31
2022-09-10T11:25:18.798Z,55.73
2022-09-10T11:27:51.648Z,56.95
2022-09-10T11:30:18.765Z,56.43
2022-09-10T11:32:51.385Z,54.86
2022-09-10T11:35:45.649Z,55.05
2022-09-10T11:38:53.474Z,55.90
2022-09-10T11:41:25.909Z,55.97
2022-09-10T11:44:14.387Z,56.21
2022-09-10T11:46:43.505Z,56.73
2022-09-10T11:49:24.249Z,55.76
2022-09-10T11:51:51.037Z,54.90
2022-09-10T11:54:30.212Z,55.26
2022-09-10T11:56:56.980Z,55.54
2022-09-10T11:59:41.823Z,54.62
2022-09-10T12:02:39.524Z,56.34
2022-09-10T12:05:24.778Z,55.55
2022-09-10T12:08:00.083Z,54.79
2022-09-10T12:10:34.139Z,54.83
2022-09-10T12:13:01.114Z,53.01
2022-09-10T12:15:29.803Z,54.52
2022-09-10T12:18:02.519Z,54.60
2022-09-10T12:20:38.138Z,53.61
2022-09-10T12:23:05.459Z,54.07
2022-09-10T12:25:34.638Z,54.52
2022-09-10T12:28:05.661Z,59.31
2022-09-10T12:30:32.231Z,64.16
2022-09-10T12:33:22.650Z,67.68
2022-09-10T12:35:53.751Z,69.81
2022-09-10T12:39:14.460Z,69.25
2022-09-10T12:41:41.141Z,72.02
2022-09-10T12:44:28.669Z,72.45
2022-09-10T12:47:13.891Z,70.95
2022-09-10T12:49:48.951Z,71.64
2022-09-10T12:52:41.650Z,72.49
2022-09-10T12:55:14.130Z,71.37
2022-09-10T12:58:28.311Z,72.71
2022-09-10T13:00:54.978Z,71.46
2022-09-10T13:03:25.512Z,68.81
2022-09-10T13:06:02.182Z,69.56
2022-09-10T13:08:41.548Z,69.96
2022-09-10T13:11:20.954Z,69.22
2022-09-10T13:14:01.272Z,69.00
2022-09-10T13:16:27.976Z,68.51
2022-09-10T13:19:14.487Z,67.40
2022-09-10T13:21:41.221Z,67.97
2022-09-10T13:24:37.721Z,68.17
2022-09-10T13:27:21.256Z,64.98
2022-09-10T13:30:21.867Z,65.10
2022-09-10T13:32:53.292Z,64.83
2022-09-10T13:35:41.688Z,63.83
2022-09-10T13:38:46.115Z,62.57
2022-09-10T13:41:15.822Z,61.45
2022-09-10T13:43:48.328Z,62.05
2022-09-10T13:46:23.471Z,61.94
2022-09-10T13:48:55.991Z,62.00
2022-09-10T13:51:41.234Z,63.82
2022-09-10T13:54:22.415Z,64.71
2022-09-10T13:56:50.356Z,63.21
2022-09-10T13:59:27.073Z,62.99
2022-09-10T14:01:55.610Z,62.17
2022-09-10T14:04:34.353Z,63.89
2022-09-10T14:07:19.034Z,63.89
2022-09-10T14:09:49.766Z,64.10
2022-09-10T14:12:19.825Z,65.82
2022-09-10T14:14:57.342Z,65.51
2022-09-10T14:17:41.119Z,64.92
2022-09-10T14:20:21.742Z,65.94
2022-09-10T14:22:51.930Z,65.72
2022-09-10T14:25:39.567Z,66.32
2022-09-10T14:28:12.301Z,67.75
2022-09-10T14:30:39.045Z,68.78
2022-09-10T14:33:24.708Z,69.84
2022-09-10T14:35:52.042Z,71.83
2022-09-10T14:38:29.605Z,71.93
2022-09-10T14:41:05.479Z,73.09
2022-09-10T14:43:37.203Z,72.50
2022-09-10T14:46:06.750Z,72.66
2022-09-10T14:48:39.808Z,72.95
2022-09-10T14:51:21.475Z,71.76
2022-09-10T14:53:53.582Z,71.25
2022-09-10T14:56:25.261Z,71.30
2022-09-10T14:59:11.212Z,72.21
2022-09-10T15:01:40.848Z,72.45
2022-09-10T15:04:20.453Z,72.81
2022-09-10T15:06:47.122Z,73.46
2022-09-10T15:09:14.646Z,74.53
2022-09-10T15:11:47.966Z,73.41
2022-09-10T15:14:16.639Z,75.12
2022-09-10T15:16:43.307Z,74.68
2022-09-10T15:19:11.445Z,75.13
2022-09-10T15:21:39.463Z,75.22
2022-09-10T15:24:06.309Z,75.62
2022-09-10T15:26:33.835Z,75.78
2022-09-10T15:29:00.658Z,76.51
2022-09-10T15:31:32.036Z,77.35
2022-09-10T15:33:59.375Z,78.09
2022-09-10T15:36:25.983Z,79.50
2022-09-10T15:38:52.970Z,79.30
2022-09-10T15:41:20.263Z,79.01
2022-09-10T15:43:47.332Z,78.96
2022-09-10T15:46:16.572Z,79.64
2022-09-10T15:48:43.611Z,79.63
2022-09-10T15:51:15.154Z,79.43
2022-09-10T15:53:43.479Z,78.85
2022-09-10T15:56:11.736Z,78.43
2022-09-10T15:58:39.483Z,78.31
2022-09-10T16:01:12.175Z,77.80
2022-09-10T16:03:46.766Z,77.76
2022-09-10T16:06:14.270Z,78.09
2022-09-10T16:08:41.401Z,79.05
2022-09-10T16:11:10.516Z,79.02
2022-09-10T16:13:37.818Z,78.75
2022-09-10T16:16:09.982Z,76.76
2022-09-10T16:18:37.353Z,78.26
2022-09-10T16:21:09.661Z,78.72
2022-09-10T16:23:37.177Z,78.86
2022-09-10T16:26:05.289Z,79.94
2022-09-10T16:28:33.192Z,79.95
2022-09-10T16:31:18.316Z,78.99
2022-09-10T16:33:45.930Z,77.35
2022-09-10T16:36:13.471Z,77.34
2022-09-10T16:38:40.257Z,78.74
2022-09-10T16:41:07.368Z,77.83
2022-09-10T16:43:35.693Z,78.15
2022-09-10T16:46:03.891Z,78.14
2022-09-10T16:48:31.728Z,79.12
2022-09-10T16:51:03.345Z,78.80
2022-09-10T16:53:30.087Z,78.43
2022-09-10T16:56:04.430Z,77.56
2022-09-10T16:58:35.816Z,78.06
2022-09-10T17:01:05.006Z,77.63
2022-09-10T17:03:31.637Z,77.47
2022-09-10T17:05:59.175Z,76.73
2022-09-10T17:08:28.223Z,77.05
2022-09-10T17:10:56.175Z,77.52
2022-09-10T17:13:22.981Z,77.57
2022-09-10T17:15:49.778Z,76.80
2022-09-10T17:18:16.587Z,76.26
2022-09-10T17:20:43.993Z,77.61
2022-09-10T17:23:11.358Z,77.22
2022-09-10T17:25:38.108Z,76.97
2022-09-10T17:28:04.963Z,75.81
2022-09-10T17:30:31.824Z,75.69
2022-09-10T17:32:58.477Z,76.10
2022-09-10T17:35:25.892Z,76.92
2022-09-10T17:37:52.468Z,77.15
2022-09-10T17:40:19.309Z,76.81
2022-09-10T17:42:48.619Z,77.77
2022-09-10T17:45:15.380Z,77.12
2022-09-10T17:47:42.036Z,77.60
2022-09-10T17:50:09.068Z,76.84
2022-09-10T17:52:35.704Z,76.89
2022-09-10T17:55:03.023Z,77.26
2022-09-10T17:57:30.307Z,76.90
2022-09-10T17:59:57.208Z,76.63
2022-09-10T18:02:29.965Z,76.85
2022-09-10T18:04:56.728Z,76.56
2022-09-10T18:07:23.329Z,76.46
2022-09-10T18:09:50.152Z,76.87
2022-09-10T18:12:16.882Z,76.67
2022-09-10T18:14:43.553Z,76.71
2022-09-10T18:17:10.120Z,76.92
2022-09-10T18:19:36.875Z,76.85
2022-09-10T18:22:03.511Z,77.55
2022-09-10T18:24:30.183Z,77.85
2022-09-10T18:26:57.025Z,77.45
2022-09-10T18:29:26.206Z,77.10
2022-09-10T18:31:55.148Z,76.55
2022-09-10T18:34:24.967Z,76.34
2022-09-10T18:36:52.837Z,75.67
2022-09-10T18:39:20.678Z,75.51
2022-09-10T18:41:48.084Z,75.23
2022-09-10T18:44:20.710Z,74.60
2022-09-10T18:46:49.323Z,74.55
2022-09-10T18:49:21.235Z,74.82
2022-09-10T18:51:49.041Z,75.12
2022-09-10T18:54:17.035Z,75.65
2022-09-10T18:56:44.241Z,75.62
2022-09-10T18:59:15.904Z,76.06
2022-09-10T19:01:43.958Z,76.31
2022-09-10T19:04:13.084Z,76.27
2022-09-10T19:06:42.737Z,76.51
2022-09-10T19:09:43.217Z,76.37
2022-09-10T19:12:09.931Z,75.95
2022-09-10T19:14:36.578Z,76.47
2022-09-10T19:17:04.040Z,76.84
2022-09-10T19:19:33.217Z,76.93
2022-09-10T19:22:02.228Z,77.00
2022-09-10T19:24:51.023Z,76.62
2022-09-10T19:27:16.863Z,76.23
2022-09-10T19:29:43.494Z,76.74
2022-09-10T19:32:10.199Z,77.51
2022-09-10T19:34:36.880Z,77.59
2022-09-10T19:37:03.632Z,77.42
2022-09-10T19:39:31.444Z,77.04
2022-09-10T19:41:58.140Z,76.95
2022-09-10T19:44:24.860Z,76.98
2022-09-10T19:46:51.555Z,77.63
2022-09-10T19:49:18.136Z,77.19
2022-09-10T19:51:44.968Z,76.74
2022-09-10T19:54:11.568Z,77.27
2022-09-10T19:56:40.734Z,77.31
2022-09-10T19:59:07.344Z,77.23
2022-09-10T20:01:35.893Z,77.07
2022-09-10T20:04:05.548Z,77.26
2022-09-10T20:06:33.858Z,76.84
2022-09-10T20:09:00.874Z,76.44
2022-09-10T20:11:30.596Z,75.63
2022-09-10T20:14:09.803Z,75.54
2022-09-10T20:16:41.572Z,75.71
2022-09-10T20:19:09.082Z,75.70
2022-09-10T20:21:36.658Z,75.97
2022-09-10T20:24:05.711Z,75.74
2022-09-10T20:26:34.111Z,76.14
2022-09-10T20:29:04.244Z,76.77
2022-09-10T20:31:33.281Z,77.53
2022-09-10T20:34:02.426Z,77.82
2022-09-10T20:36:29.781Z,77.12
2022-09-10T20:38:56.512Z,77.13
2022-09-10T20:41:24.564Z,76.18
2022-09-10T20:43:52.767Z,76.26
2022-09-10T20:46:22.115Z,76.46
2022-09-10T20:48:50.274Z,76.66
2022-09-10T20:51:18.152Z,77.36
2022-09-10T20:53:45.037Z,77.45
2022-09-10T20:56:17.334Z,77.76
2022-09-10T20:58:45.485Z,77.97
2022-09-10T21:01:17.386Z,78.39
2022-09-10T21:03:45.150Z,78.09
2022-09-10T21:06:13.219Z,77.07
2022-09-10T21:08:41.790Z,77.26
2022-09-10T21:11:12.158Z,77.29
2022-09-10T21:13:45.070Z,76.80
2022-09-10T21:16:17.327Z,77.02
2022-09-10T21:18:52.199Z,76.94
2022-09-10T21:21:22.230Z,77.22
2022-09-10T21:23:51.289Z,77.08
2022-09-10T21:26:20.051Z,76.40
2022-09-10T21:28:47.509Z,77.07
2022-09-10T21:31:14.934Z,77.28
2022-09-10T21:33:42.848Z,77.64
2022-09-10T21:36:14.910Z,77.55
2022-09-10T21:38:46.007Z,78.25
2022-09-10T21:41:15.271Z,77.74
2022-09-10T21:43:43.992Z,77.29
2022-09-10T21:46:12.179Z,77.27
2022-09-10T21:48:40.056Z,77.04
2022-09-10T21:51:11.557Z,77.11
2022-09-10T21:53:38.533Z,77.09
2022-09-10T21:56:05.521Z,77.08
2022-09-10T21:58:35.463Z,77.07
2022-09-10T22:01:03.046Z,77.63
2022-09-10T22:03:32.034Z,77.40
2022-09-10T22:06:05.720Z,77.46
2022-09-10T22:08:32.562Z,77.01
2022-09-10T22:11:03.609Z,77.33
2022-09-10T22:13:30.636Z,77.37
2022-09-10T22:15:57.236Z,77.61
2022-09-10T22:18:23.963Z,77.91
2022-09-10T22:20:50.576Z,78.17
2022-09-10T22:23:17.214Z,77.86
2022-09-10T22:25:43.781Z,77.95
2022-09-10T22:28:10.503Z,77.86
2022-09-10T22:30:37.087Z,78.23
2022-09-10T22:33:03.803Z,78.72
2022-09-10T22:35:30.523Z,78.91
2022-09-10T22:37:57.305Z,78.31
2022-09-10T22:40:24.666Z,77.18
2022-09-10T22:42:51.841Z,76.96
2022-09-10T22:45:19.004Z,76.47
2022-09-10T22:47:45.640Z,76.54
2022-09-10T22:50:12.387Z,77.04
2022-09-10T22:52:39.059Z,77.57
2022-09-10T22:55:06.330Z,77.17
2022-09-10T22:57:33.207Z,77.24
2022-09-10T22:59:59.775Z,78.35
2022-09-10T23:02:26.936Z,78.90
2022-09-10T23:04:53.555Z,78.99
2022-09-10T23:07:20.262Z,78.84
2022-09-10T23:09:46.834Z,78.22
2022-09-10T23:12:13.660Z,78.03
2022-09-10T23:14:40.244Z,77.79
2022-09-10T23:17:06.878Z,77.45
2022-09-10T23:19:33.815Z,78.16
2022-09-10T23:22:01.038Z,77.88
2022-09-10T23:24:27.628Z,79.18
2022-09-10T23:26:54.589Z,78.89
2022-09-10T23:29:21.525Z,78.87
2022-09-10T23:31:48.177Z,78.74
2022-09-10T23:34:19.082Z,78.64
2022-09-10T23:36:47.641Z,78.19
2022-09-10T23:39:34.049Z,78.27
2022-09-10T23:42:00.793Z,78.15
2022-09-10T23:44:28.012Z,78.00
2022-09-10T23:46:55.252Z,77.99
2022-09-10T23:49:22.609Z,79.19
2022-09-10T23:51:49.996Z,79.57
2022-09-10T23:54:17.215Z,78.77
2022-09-10T23:56:44.493Z,78.27
2022-09-10T23:59:11.243Z,78.35
